Hoxeyville, Michigan
Current Conditions -  °F | °C
As of 3:55 PM on Sunday 23 Nov 2014 (Local Time) from KCAD Reporting Station
Drizzle Drizzle  
Wind Chill: 43°   Ceiling: 300
Heat Index: 46°   Visibility: 3mi
Dew Point: 46°   Wind: 6mph
Humidity: 99%   Direction: 150°SSE
Pressure: 29.57"   Gusts: NA
Location:  44.2433°N, 85.5328°W
Report Text: KCAD 232055Z AUTO 15005KT 3SM -DZ OVC003 07/07 A2957 RMK AO2 T00770075
Loading
Personal Weather Stations






























Interactive Weather Map New forecast layout! Learn more

10-Day Weather Forecast

Advertisements
Track Severe Weather on mobile